Bookmark and Share
Track history (hours):
 

Jessica S. Settoon

More information available from US FCC via Universal Licensing System and Coast Guard Vessel Documentation Center.

Last reported at 2014-Apr-13 05:28 UTC. Time now 2014-Apr-17 15:38 UTC.
Position N 29°34' W 090°56'.

Length 17 m; draft 3 m.

Type: Tug. MMSI: 367312940.

NotesDate/timePositionNaut miles runAvg speedWind from/ knotsBaromVisibWave heightAir tempDewpointWater temp
2014-Apr-13 05:28N 29°34' W 090°56'6 6.6
2014-Apr-13 04:33N 29°37' W 091°01'2 0.8
2014-Apr-13 01:32N 29°40' W 091°01'1 1.0
2014-Apr-13 00:26N 29°40' W 091°00'0 0.3
2014-Apr-12 23:29N 29°41' W 091°00'1 0.2
2014-Apr-12 18:18N 29°40' W 091°01'1 1.1
2014-Apr-12 17:33N 29°40' W 091°02'0 0.0
2014-Apr-12 16:26N 29°40' W 091°02'0 0.0
2014-Apr-12 15:33N 29°40' W 091°02'0 0.0
2014-Apr-12 14:33N 29°40' W 091°02'0 0.0
2014-Apr-12 13:33N 29°40' W 091°02'0 0.0
2014-Apr-12 12:33N 29°40' W 091°02'0 0.0
2014-Apr-12 11:29N 29°40' W 091°02'0 0.0
2014-Apr-12 10:33N 29°40' W 091°02'0 0.0
2014-Apr-12 09:33N 29°40' W 091°02'0 0.0
2014-Apr-12 08:33N 29°40' W 091°02'0 0.0
2014-Apr-12 07:33N 29°40' W 091°02'3 2.6
2014-Apr-12 06:33N 29°37' W 091°03'5 5.3
2014-Apr-12 05:33N 29°40' W 091°08'3 2.8
2014-Apr-12 04:33N 29°41' W 091°11'5 5.0
2014-Apr-12 03:33N 29°39' W 091°17'5 4.8
2014-Apr-12 02:32N 29°39' W 091°22'0 0.0
2014-Apr-10 16:32N 29°39' W 091°22'7 7.2
2014-Apr-10 15:33N 29°40' W 091°14'5 5.3
2014-Apr-10 14:33N 29°40' W 091°08'5 4.9
2014-Apr-10 13:33N 29°37' W 091°03'5 4.7
2014-Apr-10 12:33N 29°38' W 090°58'1 1.5
2014-Apr-10 11:33N 29°37' W 090°56'0 0.0
2014-Apr-10 10:33N 29°37' W 090°56'0 0.3
2014-Apr-10 09:33N 29°38' W 090°56'0 0.0
2014-Apr-10 08:33N 29°38' W 090°56'0 0.0
2014-Apr-10 07:29N 29°38' W 090°56'2 2.2
2014-Apr-10 06:33N 29°38' W 090°58'5 5.3
2014-Apr-10 05:33N 29°38' W 091°04'6 5.8
2014-Apr-10 04:33N 29°41' W 091°10'5 5.1
2014-Apr-10 03:33N 29°39' W 091°15'6 5.4
2014-Apr-10 02:29N 29°39' W 091°22'10 0.3
2014-Apr-08 22:29N 29°42' W 091°32'7 7.8
2014-Apr-08 21:33N 29°39' W 091°24'8 7.6
2014-Apr-08 20:33N 29°39' W 091°16'5 5.4
2014-Apr-08 19:33N 29°41' W 091°10'0 0.1
2014-Apr-08 18:33N 29°41' W 091°10'6 5.6
2014-Apr-08 17:33N 29°38' W 091°04'5 0.4
2014-Apr-08 04:12N 29°37' W 090°59'  

Dump ship's entire track history

sailing weather and tide predictions

Jessica S. Settoon — WDD9545 — position and weather